EDT,Max TemperatureF,Mean TemperatureF,Min TemperatureF,Max Dew PointF,MeanDew PointF,Min DewpointF,Max Humidity, Mean Humidity, Min Humidity, Max Sea Level PressureIn, Mean Sea Level PressureIn, Min Sea Level PressureIn, Max VisibilityMiles, Mean VisibilityMiles, Min VisibilityMiles, Max Wind SpeedMPH, Mean Wind SpeedMPH, Max Gust SpeedMPH,PrecipitationIn, CloudCover, Events, WindDirDegrees
2014-8-1,68,66,64,66,64,62,97,92,84,30.12,30.09,30.05,10,4,1,16,8,22,2.77,8,Rain-Thunderstorm,15
2014-8-2,72,69,66,65,64,63,93,87,78,30.15,30.11,30.07,10,8,2,8,5,,0.00,7,,30
2014-8-3,84,75,66,68,66,64,96,77,53,30.13,30.09,30.01,10,8,2,7,1,,0.00,3,,57
2014-8-4,87,75,66,68,67,65,97,83,51,30.13,30.08,30.01,10,6,0,10,2,,0.00,3,Fog,27
2014-8-5,87,76,66,71,68,64,93,77,51,30.10,30.04,29.99,10,9,5,7,2,,0.00,2,,52
2014-8-6,87,76,66,72,67,61,97,75,44,30.02,29.99,29.93,10,8,1,7,2,,0.00,2,Thunderstorm,343
2014-8-7,89,79,70,68,66,62,93,69,42,30.03,29.98,29.93,10,9,4,8,4,,0.00,1,,3
2014-8-8,79,74,70,71,69,66,90,82,74,30.15,30.07,30.01,8,6,3,6,2,,0.01,4,Rain,67
2014-8-9,82,76,69,72,69,65,93,85,69,30.09,30.05,29.99,10,9,5,15,4,,0.00,7,,119
2014-8-10,72,69,66,68,67,64,97,90,84,30.11,30.07,30.02,10,6,2,12,8,,0.04,8,Rain,37
2014-8-11,82,76,71,73,71,69,96,89,69,30.07,30.02,29.93,10,6,0,6,2,,0.81,7,Fog-Rain,128
2014-8-12,87,79,72,74,72,70,96,87,65,29.94,29.87,29.78,10,7,1,12,4,17,0.48,6,Rain-Thunderstorm,199
2014-8-13,84,74,66,70,64,57,97,75,42,29.99,29.91,29.83,10,7,0,8,1,,0.00,1,Fog-Thunderstorm,355
2014-8-14,82,70,59,65,59,55,93,72,42,30.08,30.02,29.98,10,10,7,6,2,,0.00,1,,353
2014-8-15,84,73,62,67,64,60,93,74,52,30.04,30.00,29.96,10,10,6,6,1,,0.00,1,,220
2014-8-16,86,75,66,70,68,64,93,82,56,30.06,30.02,29.97,10,7,1,8,1,,0.00,4,,40
2014-8-17,88,78,68,75,69,66,93,78,49,30.03,29.99,29.95,10,7,3,5,1,,0.00,1,,235
2014-8-18,88,80,71,72,69,65,93,77,51,29.95,29.87,29.79,10,8,3,10,2,20,0.00,2,,216
2014-8-19,87,78,69,73,70,67,100,84,61,29.91,29.86,29.80,10,8,2,13,2,,0.44,2,Rain-Thunderstorm,201
2014-8-20,89,78,68,76,69,66,97,83,53,30.04,29.96,29.90,10,6,1,6,1,,0.09,1,Rain-Thunderstorm,278
2014-8-21,91,78,66,74,68,64,93,72,42,30.11,30.06,29.99,10,10,6,7,1,,0.00,0,,12
2014-8-22,93,81,71,75,72,68,93,72,47,30.06,30.00,29.95,10,10,6,13,1,18,0.00,1,Thunderstorm,190
2014-8-23,90,82,73,74,71,70,93,72,53,29.97,29.93,29.88,10,10,7,9,2,,0.01,1,,31
2014-8-24,81,74,68,73,69,63,97,85,64,30.10,30.01,29.93,10,7,1,15,8,23,1.87,7,Rain-Thunderstorm,49
2014-8-25,81,72,63,63,60,57,90,66,45,30.13,30.10,30.06,10,10,10,15,7,21,0.00,1,,26
2014-8-26,81,72,62,62,60,58,87,71,49,30.18,30.12,30.07,10,10,10,10,6,,0.00,1,,10
2014-8-27,86,74,62,62,59,53,90,68,33,30.12,30.05,30.00,10,10,10,9,5,,0.00,0,,359
2014-8-28,90,76,61,72,65,58,93,72,48,30.04,30.00,29.97,10,10,10,5,1,,0.00,0,,197
2014-8-29,87,76,66,71,69,65,93,77,61,30.14,30.09,30.02,10,9,6,10,3,,0.00,2,,32
2014-8-30,88,78,68,73,69,66,97,82,48,30.21,30.16,30.09,10,5,0,6,1,,0.00,0,Fog,123
2014-8-31,90,81,72,74,71,67,93,78,55,30.19,30.13,30.05,10,9,1,7,4,,0.21,3,Rain,195